Aviation Digital Data Service (ADDS)

Output produced by METARs form (1936 UTC 23 January 2019)
found at http://www.aviationweather.gov/metar/data/
 
METAR text: RPMR 230900Z 18006KT 9999 FEW018CB BKN080 OVC250 28/24 Q1008 RMK A2977 CB NW SW QD W/ DSTNT PCPN
Conditions at: RPMR (GEN SANTOS , PH) observed 0900 UTC 23 January 2019
Temperature: 28.0°C (82°F)
Dewpoint: 24.0°C (75°F) [RH = 79%]
Pressure (altimeter): 29.76 inches Hg (1008.0 mb)
Winds: from the S (180 degrees) at 7 MPH (6 knots; 3.1 m/s)
Visibility: 6 or more miles (10+ km)
Ceiling: 8000 feet AGL
Clouds: few clouds at 1800 feet AGL
broken clouds at 8000 feet AGL
overcast cloud deck at 25000 feet AGL
Weather: no significant weather observed at this time

METAR text: RPMR 230800Z 16006KT 9999 -SHRA FEW018CB BKN080 OVC250 29/25 Q1007 RMK A2974 CB NW SW QDS
Conditions at: RPMR (GEN SANTOS , PH) observed 0800 UTC 23 January 2019
Temperature: 29.0°C (84°F)
Dewpoint: 25.0°C (77°F) [RH = 79%]
Pressure (altimeter): 29.73 inches Hg (1007.0 mb)
Winds: from the SSE (160 degrees) at 7 MPH (6 knots; 3.1 m/s)
Visibility: 6 or more miles (10+ km)
Ceiling: 8000 feet AGL
Clouds: few clouds at 1800 feet AGL
broken clouds at 8000 feet AGL
overcast cloud deck at 25000 feet AGL
Weather: -SHRA  (light rain showers)

METAR text: RPMR 230700Z 16010KT 9999 FEW018CB SCT080 OVC250 30/24 Q1007 RMK A2975 CB NW SW QDS
Conditions at: RPMR (GEN SANTOS , PH) observed 0700 UTC 23 January 2019
Temperature: 30.0°C (86°F)
Dewpoint: 24.0°C (75°F) [RH = 70%]
Pressure (altimeter): 29.73 inches Hg (1007.0 mb)
Winds: from the SSE (160 degrees) at 12 MPH (10 knots; 5.1 m/s)
Visibility: 6 or more miles (10+ km)
Ceiling: 25000 feet AGL
Clouds: few clouds at 1800 feet AGL
scattered clouds at 8000 feet AGL
overcast cloud deck at 25000 feet AGL
Weather: no significant weather observed at this time

METAR text: RPMR 230600Z 16010KT 9999 FEW018CB SCT080 BKN250 33/22 Q1007 NOSIG RMK A2974 CB NW, SE
Conditions at: RPMR (GEN SANTOS , PH) observed 0600 UTC 23 January 2019
Temperature: 33.0°C (91°F)
Dewpoint: 22.0°C (72°F) [RH = 53%]
Pressure (altimeter): 29.73 inches Hg (1007.0 mb)
Winds: from the SSE (160 degrees) at 12 MPH (10 knots; 5.1 m/s)
Visibility: 6 or more miles (10+ km)
Ceiling: 25000 feet AGL
Clouds: few clouds at 1800 feet AGL
scattered clouds at 8000 feet AGL
broken clouds at 25000 feet AGL
Weather: no significant weather observed at this time

METAR text: RPMR 230500Z 16010KT 9999 SCT018 BKN250 33/22 Q1007 NOSIG RMK A2974
Conditions at: RPMR (GEN SANTOS , PH) observed 0500 UTC 23 January 2019
Temperature: 33.0°C (91°F)
Dewpoint: 22.0°C (72°F) [RH = 53%]
Pressure (altimeter): 29.73 inches Hg (1007.0 mb)
Winds: from the SSE (160 degrees) at 12 MPH (10 knots; 5.1 m/s)
Visibility: 6 or more miles (10+ km)
Ceiling: 25000 feet AGL
Clouds: scattered clouds at 1800 feet AGL
broken clouds at 25000 feet AGL
Weather: no significant weather observed at this time

METAR text: RPMR 230400Z 04006KT 9999 SCT018 BKN250 34/23 Q1008 NOSIG RMK A2977
Conditions at: RPMR (GEN SANTOS , PH) observed 0400 UTC 23 January 2019
Temperature: 34.0°C (93°F)
Dewpoint: 23.0°C (73°F) [RH = 53%]
Pressure (altimeter): 29.76 inches Hg (1008.0 mb)
Winds: from the NE (40 degrees) at 7 MPH (6 knots; 3.1 m/s)
Visibility: 6 or more miles (10+ km)
Ceiling: 25000 feet AGL
Clouds: scattered clouds at 1800 feet AGL
broken clouds at 25000 feet AGL
Weather: no significant weather observed at this time

METAR text: RPMR 230300Z 36004KT 9999 SCT018 BKN250 33/22 Q1009 NOSIG RMK A2980
Conditions at: RPMR (GEN SANTOS , PH) observed 0300 UTC 23 January 2019
Temperature: 33.0°C (91°F)
Dewpoint: 22.0°C (72°F) [RH = 53%]
Pressure (altimeter): 29.79 inches Hg (1009.0 mb)
Winds: from the N (360 degrees) at 5 MPH (4 knots; 2.1 m/s)
Visibility: 6 or more miles (10+ km)
Ceiling: 25000 feet AGL
Clouds: scattered clouds at 1800 feet AGL
broken clouds at 25000 feet AGL
Weather: no significant weather observed at this time

METAR text: RPMR 230200Z 34004KT 9999 SCT018 BKN250 31/23 Q1011 NOSIG RMK A2985
Conditions at: RPMR (GEN SANTOS , PH) observed 0200 UTC 23 January 2019
Temperature: 31.0°C (88°F)
Dewpoint: 23.0°C (73°F) [RH = 63%]
Pressure (altimeter): 29.85 inches Hg (1011.0 mb)
Winds: from the NNW (340 degrees) at 5 MPH (4 knots; 2.1 m/s)
Visibility: 6 or more miles (10+ km)
Ceiling: 25000 feet AGL
Clouds: scattered clouds at 1800 feet AGL
broken clouds at 25000 feet AGL
Weather: no significant weather observed at this time

METAR text: RPMR 230100Z 36006KT 9999 SCT018 SCT080 OVC250 29/23 Q1011 NOSIG RMK A2985
Conditions at: RPMR (GEN SANTOS , PH) observed 0100 UTC 23 January 2019
Temperature: 29.0°C (84°F)
Dewpoint: 23.0°C (73°F) [RH = 70%]
Pressure (altimeter): 29.85 inches Hg (1011.0 mb)
Winds: from the N (360 degrees) at 7 MPH (6 knots; 3.1 m/s)
Visibility: 6 or more miles (10+ km)
Ceiling: 25000 feet AGL
Clouds: scattered clouds at 1800 feet AGL
scattered clouds at 8000 feet AGL
overcast cloud deck at 25000 feet AGL
Weather: no significant weather observed at this time

METAR text: RPMR 230000Z 00000KT 9999 SCT018 SCT080 OVC250 28/24 Q1011 NOSIG RMK A2985
Conditions at: RPMR (GEN SANTOS , PH) observed 0000 UTC 23 January 2019
Temperature: 28.0°C (82°F)
Dewpoint: 24.0°C (75°F) [RH = 79%]
Pressure (altimeter): 29.85 inches Hg (1011.0 mb)
Winds: calm
Visibility: 6 or more miles (10+ km)
Ceiling: 25000 feet AGL
Clouds: scattered clouds at 1800 feet AGL
scattered clouds at 8000 feet AGL
overcast cloud deck at 25000 feet AGL
Weather: no significant weather observed at this time

METAR text: RPMR 220900Z 18006KT 9999 SCT018 SCT080 BKN250 30/22 Q1007 NOSIG RMK A2974
Conditions at: RPMR (GEN SANTOS , PH) observed 0900 UTC 22 January 2019
Temperature: 30.0°C (86°F)
Dewpoint: 22.0°C (72°F) [RH = 62%]
Pressure (altimeter): 29.73 inches Hg (1007.0 mb)
Winds: from the S (180 degrees) at 7 MPH (6 knots; 3.1 m/s)
Visibility: 6 or more miles (10+ km)
Ceiling: 25000 feet AGL
Clouds: scattered clouds at 1800 feet AGL
scattered clouds at 8000 feet AGL
broken clouds at 25000 feet AGL
Weather: no significant weather observed at this time

METAR text: RPMR 220800Z 16008KT 9999 VCSH SCT018CB SCT080 BKN250 32/22 Q1007 NOSIG RMK A2974 CB W/ VCSH NW NE SE
Conditions at: RPMR (GEN SANTOS , PH) observed 0800 UTC 22 January 2019
Temperature: 32.0°C (90°F)
Dewpoint: 22.0°C (72°F) [RH = 56%]
Pressure (altimeter): 29.73 inches Hg (1007.0 mb)
Winds: from the SSE (160 degrees) at 9 MPH (8 knots; 4.1 m/s)
Visibility: 6 or more miles (10+ km)
Ceiling: 25000 feet AGL
Clouds: scattered clouds at 1800 feet AGL
scattered clouds at 8000 feet AGL
broken clouds at 25000 feet AGL
Weather: VCSH  (showers in vicinity)

Forecast for: RPMR (GEN SANTOS , PH)
Text: TAF RPMR 231700Z 2318/2418 16008KT 9999 FEW018 SCT080 BKN250
Forecast period: 1800 UTC 23 January 2019 to 1800 UTC 24 January 2019
Forecast type: FROM: standard forecast or significant change
Winds: from the SSE (160 degrees) at 9 MPH (8 knots; 4.1 m/s)
Visibility: 6 or more miles 10+ km)
Ceiling: 25000 feet AGL
Clouds: few clouds at 1800 feet AGL
scattered clouds at 8000 feet AGL
broken clouds at 25000 feet AGL
Weather: no significant weather forecast for this period
Text: TEMPO 2400/2406 12010KT -SHRA FEW016CB BKN080
Forecast period: 0000 to 0600 UTC 24 January 2019
Forecast type: TEMPORARY: The following changes expected for less than half the time period
Winds: from the ESE (120 degrees) at 12 MPH (10 knots; 5.1 m/s)
Visibility: missing
Ceiling: 8000 feet AGL
Clouds: few clouds at 1600 feet AGL
broken clouds at 8000 feet AGL
Weather: -SHRA  (light rain showers)